createdAt,value
2023-03-01T00:00:00.194Z,10.99
2023-03-01T00:05:03.975Z,10.77
2023-03-01T00:10:10.490Z,11.27
2023-03-01T00:15:15.125Z,11.40
2023-03-01T00:20:19.019Z,11.46
2023-03-01T00:25:24.328Z,11.46
2023-03-01T00:30:28.079Z,11.27
2023-03-01T00:35:31.754Z,10.89
2023-03-01T00:40:37.641Z,10.67
2023-03-01T00:45:41.253Z,10.43
2023-03-01T00:50:44.891Z,10.20
2023-03-01T00:55:50.192Z,10.22
2023-03-01T01:00:53.827Z,10.09
2023-03-01T01:05:57.478Z,9.99
2023-03-01T01:11:03.425Z,9.70
2023-03-01T01:16:08.061Z,9.76
2023-03-01T01:21:13.792Z,9.78
2023-03-01T01:26:20.511Z,9.76
2023-03-01T01:31:24.798Z,9.72
2023-03-01T01:36:28.818Z,9.67
2023-03-01T01:41:35.062Z,9.49
2023-03-01T01:46:40.904Z,9.24
2023-03-01T01:51:47.072Z,9.16
2023-03-01T01:56:58.153Z,9.19
2023-03-01T02:02:05.170Z,9.13
2023-03-01T02:07:15.053Z,8.92
2023-03-01T02:12:24.055Z,8.92
2023-03-01T02:17:27.880Z,9.04
2023-03-01T02:22:34.187Z,9.02
2023-03-01T02:27:43.209Z,8.92
2023-03-01T02:32:50.327Z,8.81
2023-03-01T02:37:54.106Z,9.08
2023-03-01T02:42:59.697Z,8.88
2023-03-01T02:48:05.182Z,8.82
2023-03-01T02:53:14.908Z,8.89
2023-03-01T02:58:18.592Z,8.83
2023-03-01T03:03:24.228Z,8.67
2023-03-01T03:08:27.956Z,8.57
2023-03-01T03:13:31.632Z,8.58
2023-03-01T03:18:36.912Z,8.50
2023-03-01T03:23:40.872Z,8.48
2023-03-01T03:28:44.477Z,8.43
2023-03-01T03:33:49.757Z,8.39
2023-03-01T03:38:53.458Z,8.31
2023-03-01T03:43:57.077Z,8.25
2023-03-01T03:49:02.342Z,8.17
2023-03-01T03:54:05.984Z,8.09
2023-03-01T03:59:09.592Z,8.13
2023-03-01T04:04:14.916Z,8.10
2023-03-01T04:09:18.764Z,8.05
2023-03-01T04:14:22.396Z,7.72
2023-03-01T04:19:27.695Z,7.79
2023-03-01T04:24:31.345Z,7.80
2023-03-01T04:29:34.966Z,7.65
2023-03-01T04:34:40.327Z,7.57
2023-03-01T04:39:44.010Z,7.62
2023-03-01T04:44:48.049Z,7.54
2023-03-01T04:49:53.357Z,7.37
2023-03-01T04:54:56.972Z,7.37
2023-03-01T05:00:00.681Z,7.27
2023-03-01T05:05:06.331Z,7.30
2023-03-01T05:10:10.950Z,7.39
2023-03-01T05:15:14.590Z,7.39
2023-03-01T05:20:20.799Z,7.23
2023-03-01T05:25:24.727Z,7.33
2023-03-01T05:30:28.338Z,7.28
2023-03-01T05:35:35.130Z,7.24
2023-03-01T05:40:38.797Z,7.32
2023-03-01T05:45:43.098Z,7.27
2023-03-01T05:50:48.384Z,7.19
2023-03-01T05:55:52.016Z,7.20
2023-03-01T06:00:57.238Z,7.17
2023-03-01T06:06:02.616Z,7.11
2023-03-01T06:11:06.454Z,6.93
2023-03-01T06:16:11.083Z,6.77
2023-03-01T06:21:17.337Z,6.79
2023-03-01T06:26:21.040Z,6.69
2023-03-01T06:31:24.753Z,6.51
2023-03-01T06:36:30.274Z,6.44
2023-03-01T06:41:34.346Z,6.52
2023-03-01T06:46:38.021Z,6.43
2023-03-01T06:51:43.292Z,6.32
2023-03-01T06:56:49.337Z,6.32
2023-03-01T07:01:52.972Z,6.20
2023-03-01T07:06:59.042Z,6.21
2023-03-01T07:12:02.845Z,6.12
2023-03-01T07:17:06.518Z,6.10
2023-03-01T07:22:11.775Z,5.90
2023-03-01T07:27:15.401Z,5.83
2023-03-01T07:32:19.109Z,5.68
2023-03-01T07:37:25.438Z,5.80
2023-03-01T07:42:29.083Z,5.79
2023-03-01T07:47:32.820Z,5.76
2023-03-01T07:52:38.115Z,5.79
2023-03-01T07:57:42.125Z,5.75
2023-03-01T08:02:45.744Z,5.68
2023-03-01T08:07:51.067Z,5.59
2023-03-01T08:12:54.911Z,5.52
2023-03-01T08:17:58.518Z,5.45
2023-03-01T08:23:03.810Z,5.33
2023-03-01T08:28:07.590Z,5.05
2023-03-01T08:33:11.251Z,5.13
2023-03-01T08:38:16.531Z,5.21
2023-03-01T08:43:20.249Z,5.35
2023-03-01T08:48:24.343Z,5.37
2023-03-01T08:53:29.622Z,5.29
2023-03-01T08:58:33.313Z,5.25
2023-03-01T09:03:36.987Z,5.23
2023-03-01T09:08:43.880Z,5.14
2023-03-01T09:13:48.323Z,5.21
2023-03-01T09:18:52.763Z,5.23
2023-03-01T09:23:58.990Z,5.24
2023-03-01T09:29:02.652Z,5.22
2023-03-01T09:34:06.658Z,5.22
2023-03-01T09:39:11.959Z,5.18
2023-03-01T09:44:25.781Z,5.18
2023-03-01T09:49:32.159Z,5.21
2023-03-01T09:54:37.463Z,5.27
2023-03-01T09:59:57.470Z,5.12
2023-03-01T10:05:15.860Z,5.16
2023-03-01T10:10:29.618Z,5.20
2023-03-01T10:15:39.831Z,5.21
2023-03-01T10:20:50.516Z,5.13
2023-03-01T10:26:13.559Z,5.10
2023-03-01T10:31:21.667Z,5.11
2023-03-01T10:36:25.530Z,5.17
2023-03-01T10:41:31.648Z,5.08
2023-03-01T10:46:39.258Z,4.97
2023-03-01T10:51:44.278Z,4.85
2023-03-01T10:56:54.905Z,4.84
2023-03-01T11:02:24.459Z,4.79
2023-03-01T11:07:29.867Z,4.67
2023-03-01T11:12:35.216Z,4.68
2023-03-01T11:17:48.021Z,4.76
2023-03-01T11:22:57.118Z,4.62
2023-03-01T11:28:06.188Z,4.47
2023-03-01T11:33:19.646Z,4.39
2023-03-01T11:38:25.591Z,4.40
2023-03-01T11:43:43.206Z,4.27
2023-03-01T11:48:54.569Z,4.15
2023-03-01T11:54:15.599Z,4.28
2023-03-01T11:59:40.891Z,4.30
2023-03-01T12:05:15.166Z,4.24
2023-03-01T12:10:25.458Z,4.12
2023-03-01T12:15:51.995Z,4.21
2023-03-01T12:21:04.184Z,4.30
2023-03-01T12:26:15.227Z,4.35
2023-03-01T12:31:53.630Z,4.44
2023-03-01T12:37:23.231Z,4.43
2023-03-01T12:42:32.848Z,4.41
2023-03-01T12:47:56.881Z,4.38
2023-03-01T12:53:02.195Z,4.38
2023-03-01T12:58:19.751Z,4.33
2023-03-01T13:03:30.653Z,4.32
2023-03-01T13:08:42.241Z,4.41
2023-03-01T13:13:45.861Z,4.37
2023-03-01T13:18:49.492Z,4.29
2023-03-01T13:23:54.797Z,4.31
2023-03-01T13:28:59.461Z,4.38
2023-03-01T13:34:03.282Z,4.29
2023-03-01T13:39:30.662Z,4.34
2023-03-01T13:44:37.597Z,4.18
2023-03-01T13:49:48.099Z,4.06
2023-03-01T13:54:54.688Z,4.03
2023-03-01T13:59:57.544Z,4.07
2023-03-01T14:05:02.116Z,4.14
2023-03-01T14:10:09.268Z,4.03
2023-03-01T14:15:20.838Z,4.14
2023-03-01T14:20:26.747Z,4.29
2023-03-01T14:25:33.923Z,4.21
2023-03-01T14:30:42.774Z,4.14
2023-03-01T14:35:56.705Z,4.06
2023-03-01T14:41:06.688Z,4.07
2023-03-01T14:46:20.944Z,4.02
2023-03-01T14:51:24.838Z,4.16
2023-03-01T14:56:45.888Z,4.21
2023-03-01T15:01:50.098Z,4.37
2023-03-01T15:06:54.530Z,4.54
2023-03-01T15:11:59.823Z,4.71
2023-03-01T15:17:03.487Z,5.06
2023-03-01T15:22:14.467Z,5.38
2023-03-01T15:27:22.494Z,5.92
2023-03-01T15:32:29.704Z,6.12
2023-03-01T15:37:45.557Z,6.46
2023-03-01T15:42:50.919Z,6.88
2023-03-01T15:47:56.006Z,7.03
2023-03-01T15:53:01.140Z,7.32
2023-03-01T15:58:12.096Z,7.75
2023-03-01T16:03:17.358Z,7.80
2023-03-01T16:08:21.164Z,8.00
2023-03-01T16:13:28.277Z,8.33
2023-03-01T16:18:32.655Z,8.66
2023-03-01T16:23:36.281Z,8.84
2023-03-01T16:28:41.768Z,8.72
2023-03-01T16:33:45.382Z,8.92
2023-03-01T16:38:49.051Z,9.48
2023-03-01T16:43:54.630Z,9.72
2023-03-01T16:48:58.736Z,9.84
2023-03-01T16:54:02.433Z,9.91
2023-03-01T16:59:07.854Z,10.18
2023-03-01T17:04:13.064Z,10.37
2023-03-01T17:09:16.731Z,10.58
2023-03-01T17:14:22.432Z,10.78
2023-03-01T17:19:26.081Z,10.87
2023-03-01T17:24:29.814Z,10.90
2023-03-01T17:29:38.067Z,10.90
2023-03-01T17:34:41.719Z,11.29
2023-03-01T17:39:45.323Z,11.35
2023-03-01T17:44:50.647Z,11.54
2023-03-01T17:49:54.264Z,11.66
2023-03-01T17:54:57.905Z,11.96
2023-03-01T18:00:03.180Z,11.89
2023-03-01T18:05:07.536Z,11.87
2023-03-01T18:10:12.276Z,11.82
2023-03-01T18:15:20.024Z,11.56
2023-03-01T18:20:23.834Z,11.73
2023-03-01T18:25:27.544Z,11.93
2023-03-01T18:30:32.966Z,11.87
2023-03-01T18:35:38.602Z,12.15
2023-03-01T18:40:43.489Z,12.17
2023-03-01T18:45:49.069Z,12.32
2023-03-01T18:50:52.963Z,12.42
2023-03-01T18:56:00.876Z,12.28
2023-03-01T19:01:13.085Z,12.61
2023-03-01T19:06:17.242Z,12.93
2023-03-01T19:11:20.921Z,12.95
2023-03-01T19:16:27.968Z,13.28
2023-03-01T19:21:33.617Z,13.54
2023-03-01T19:26:37.432Z,13.57
2023-03-01T19:31:42.710Z,13.56
2023-03-01T19:36:46.556Z,13.56
2023-03-01T19:41:50.329Z,13.36
2023-03-01T19:46:57.055Z,13.48
2023-03-01T19:52:00.669Z,13.32
2023-03-01T19:57:04.595Z,13.48
2023-03-01T20:02:10.938Z,13.68
2023-03-01T20:07:14.653Z,13.82
2023-03-01T20:12:18.277Z,13.85
2023-03-01T20:17:24.192Z,14.17
2023-03-01T20:22:27.876Z,13.80
2023-03-01T20:27:31.518Z,14.20
2023-03-01T20:32:36.827Z,14.47
2023-03-01T20:37:40.444Z,14.35
2023-03-01T20:42:44.066Z,14.36
2023-03-01T20:47:49.886Z,14.43
2023-03-01T20:52:53.509Z,14.49
2023-03-01T20:57:57.212Z,14.41
2023-03-01T21:03:02.514Z,14.35
2023-03-01T21:08:06.595Z,14.58
2023-03-01T21:13:10.215Z,14.75
2023-03-01T21:18:16.565Z,14.77
2023-03-01T21:23:20.188Z,14.67
2023-03-01T21:28:23.924Z,14.73
2023-03-01T21:33:29.190Z,14.74
2023-03-01T21:38:33.611Z,14.87
2023-03-01T21:43:38.538Z,14.73
2023-03-01T21:48:45.300Z,14.52
2023-03-01T21:53:49.461Z,14.60
2023-03-01T21:58:53.527Z,14.52
2023-03-01T22:04:00.389Z,14.27
2023-03-01T22:09:07.143Z,14.22
2023-03-01T22:14:13.234Z,14.39
2023-03-01T22:19:19.332Z,14.63
2023-03-01T22:24:24.714Z,14.57
2023-03-01T22:29:29.904Z,14.51
2023-03-01T22:34:35.894Z,14.65
2023-03-01T22:39:40.583Z,14.63
2023-03-01T22:44:44.324Z,14.61
2023-03-01T22:49:49.643Z,14.56
2023-03-01T22:54:55.534Z,14.70
2023-03-01T22:59:59.105Z,14.66
2023-03-01T23:05:04.497Z,14.61
2023-03-01T23:10:08.956Z,14.20
2023-03-01T23:15:13.399Z,13.83
2023-03-01T23:20:19.187Z,14.13
2023-03-01T23:25:22.796Z,14.13
2023-03-01T23:30:26.416Z,14.23
2023-03-01T23:35:31.734Z,14.20
2023-03-01T23:40:38.688Z,13.86
2023-03-01T23:45:42.440Z,13.90
2023-03-01T23:50:47.748Z,13.90
2023-03-01T23:55:54.008Z,13.84
